This is the latest recevied weather packets stored in our database for station/object VK3MAK-1. If no packets are shown the sender has not sent any weather packets the latest 10 day(s).
| Time | Temp. | Humidity | Pressure | Rain* | Wind** | Luminosity | Snow |
|---|---|---|---|---|---|---|---|
| 1777870804 | 15° C | 92% | 1006.8 hPa | 0 mm | 7.15 m/s, 315° | - | - |
| 1777870203 | 15.56° C | 10% | - | 0.25 mm | 7.6 m/s, 315° | - | - |
| 1777869604 | 15.56° C | 10% | - | 0.25 mm | 7.6 m/s, 315° | - | - |
| 1777869003 | 14.44° C | 85% | 1006.5 hPa | 0 mm | 9.39 m/s, 315° | - | - |
| 1777868403 | 14.44° C | 85% | 1006.5 hPa | 0 mm | 9.39 m/s, 315° | - | - |
| 1777867803 | 14.44° C | 85% | 1006.5 hPa | 0 mm | 9.39 m/s, 315° | - | - |
| 1777867203 | 16.67° C | 67% | 1006.3 hPa | 0 mm | 10.28 m/s, 338° | - | - |
| 1777866603 | 16.67° C | 67% | 1006.3 hPa | 0 mm | 10.28 m/s, 338° | - | - |
| 1777866004 | 16.67° C | 67% | 1006.3 hPa | 0 mm | 10.28 m/s, 338° | - | - |
| 1777865403 | 16.67° C | 68% | 1006.6 hPa | 0 mm | 8.05 m/s, 338° | - | - |
| 1777864803 | 16.67° C | 68% | 1006.6 hPa | 0 mm | 8.05 m/s, 338° | - | - |
| 1777864204 | 16.67° C | 68% | 1006.6 hPa | 0 mm | 8.05 m/s, 338° | - | - |
| 1777863604 | 15.56° C | 70% | 1007.1 hPa | 0 mm | 9.39 m/s, 338° | - | - |
| 1777863003 | 15.56° C | 70% | 1007.1 hPa | 0 mm | 9.39 m/s, 338° | - | - |
| 1777862403 | 15.56° C | 70% | 1007.1 hPa | 0 mm | 9.39 m/s, 338° | - | - |
| 1777861803 | 16.11° C | 71% | 1007.3 hPa | 0 mm | 9.83 m/s, 338° | - | - |
| 1777861203 | 16.11° C | 71% | 1007.3 hPa | 0 mm | 9.83 m/s, 338° | - | - |
| 1777860604 | 16.11° C | 71% | 1007.3 hPa | 0 mm | 9.83 m/s, 338° | - | - |
| 1777860004 | 16.11° C | 72% | 1007.7 hPa | 0 mm | 8.49 m/s, 338° | - | - |
| 1777859404 | 16.11° C | 72% | 1007.7 hPa | 0 mm | 8.49 m/s, 338° | - | - |
| 1777858804 | 16.11° C | 72% | 1007.7 hPa | 0 mm | 8.49 m/s, 338° | - | - |
| 1777858203 | 15.56° C | 72% | 1007.8 hPa | 0 mm | 8.94 m/s, 338° | - | - |
| 1777857604 | 15.56° C | 72% | 1007.8 hPa | 0 mm | 8.94 m/s, 338° | - | - |
| 1777857004 | 15.56° C | 72% | 1007.8 hPa | 0 mm | 8.94 m/s, 338° | - | - |
| 1777856403 | 15° C | 77% | 1007.8 hPa | 0 mm | 7.15 m/s, 0° | - | - |
* Rain latest hour (hover to see other rain measurements)
** Current wind speed in m/s (hover to see current wind gust speed)